createdAt,value
2023-04-29T00:01:35.599Z,31.97
2023-04-29T00:04:02.750Z,32.50
2023-04-29T00:06:30.534Z,30.50
2023-04-29T00:08:57.284Z,30.93
2023-04-29T00:11:24.010Z,32.23
2023-04-29T00:13:50.899Z,32.27
2023-04-29T00:16:18.617Z,32.53
2023-04-29T00:18:45.357Z,30.30
2023-04-29T00:21:12.099Z,31.57
2023-04-29T00:23:38.885Z,31.90
2023-04-29T00:26:05.749Z,31.03
2023-04-29T00:28:32.513Z,29.87
2023-04-29T00:30:59.339Z,31.83
2023-04-29T00:33:26.176Z,30.40
2023-04-29T00:35:53.017Z,29.40
2023-04-29T00:38:21.273Z,27.83
2023-04-29T00:40:48.532Z,29.53
2023-04-29T00:43:15.201Z,28.93
2023-04-29T00:45:41.988Z,30.50
2023-04-29T00:48:08.943Z,29.00
2023-04-29T00:50:36.732Z,29.80
2023-04-29T00:53:03.975Z,30.30
2023-04-29T00:55:31.488Z,30.17
2023-04-29T00:57:59.110Z,30.63
2023-04-29T01:00:26.733Z,28.90
2023-04-29T01:02:55.116Z,30.40
2023-04-29T01:05:21.855Z,29.13
2023-04-29T01:08:27.172Z,27.60
2023-04-29T01:11:09.649Z,28.53
2023-04-29T01:13:46.200Z,27.00
2023-04-29T01:16:37.288Z,27.07
2023-04-29T01:19:31.622Z,26.30
2023-04-29T01:21:58.329Z,25.43
2023-04-29T01:24:25.625Z,24.03
2023-04-29T01:26:57.802Z,23.60
2023-04-29T01:29:44.972Z,24.83
2023-04-29T01:32:19.165Z,23.43
2023-04-29T01:35:06.949Z,23.00
2023-04-29T01:37:55.460Z,21.90
2023-04-29T01:40:41.440Z,23.50
2023-04-29T01:43:12.097Z,21.73
2023-04-29T01:45:42.074Z,22.57
2023-04-29T01:48:09.560Z,21.97
2023-04-29T01:50:36.407Z,21.93
2023-04-29T01:53:03.147Z,21.67
2023-04-29T01:55:30.039Z,21.43
2023-04-29T01:57:56.828Z,20.13
2023-04-29T02:00:23.628Z,20.03
2023-04-29T02:02:50.562Z,22.87
2023-04-29T02:05:17.682Z,21.03
2023-04-29T02:07:46.487Z,22.53
2023-04-29T02:10:13.358Z,22.13
2023-04-29T02:12:40.498Z,21.67
2023-04-29T02:15:07.997Z,21.50
2023-04-29T02:17:34.860Z,21.07
2023-04-29T02:20:01.609Z,20.57
2023-04-29T02:22:28.375Z,21.53
2023-04-29T02:24:55.169Z,21.57
2023-04-29T02:27:22.908Z,22.17
2023-04-29T02:29:50.568Z,22.63
2023-04-29T02:32:20.063Z,21.57
2023-04-29T02:34:47.102Z,21.93
2023-04-29T02:37:16.669Z,20.47
2023-04-29T02:39:43.461Z,21.43
2023-04-29T02:42:10.429Z,21.77
2023-04-29T02:44:37.618Z,22.23
2023-04-29T02:47:04.560Z,22.37
2023-04-29T02:49:31.559Z,21.67
2023-04-29T02:51:58.525Z,23.17
2023-04-29T02:54:26.052Z,22.97
2023-04-29T02:56:53.283Z,23.77
2023-04-29T02:59:19.968Z,24.37
2023-04-29T03:01:48.999Z,23.93
2023-04-29T03:04:16.044Z,23.87
2023-04-29T03:06:43.648Z,23.50
2023-04-29T03:09:10.630Z,22.77
2023-04-29T03:11:37.381Z,22.53
2023-04-29T03:14:04.625Z,22.13
2023-04-29T03:16:31.571Z,22.57
2023-04-29T03:18:58.415Z,22.23
2023-04-29T03:21:29.793Z,21.07
2023-04-29T03:23:56.582Z,22.77
2023-04-29T03:26:24.429Z,21.67
2023-04-29T03:28:51.950Z,22.03
2023-04-29T03:31:20.948Z,23.90
2023-04-29T03:33:47.849Z,22.77
2023-04-29T03:36:15.361Z,22.50
2023-04-29T03:38:42.187Z,23.37
2023-04-29T03:41:09.434Z,22.67
2023-04-29T03:43:36.247Z,23.77
2023-04-29T03:46:04.094Z,24.37
2023-04-29T03:48:31.235Z,24.00
2023-04-29T03:50:57.950Z,24.10
2023-04-29T03:53:26.246Z,23.87
2023-04-29T03:55:53.111Z,24.60
2023-04-29T03:58:20.070Z,24.67
2023-04-29T04:00:46.933Z,25.63
2023-04-29T04:03:13.772Z,25.13
2023-04-29T04:05:40.560Z,23.00
2023-04-29T04:08:08.489Z,24.83
2023-04-29T04:10:35.292Z,23.53
2023-04-29T04:13:02.036Z,24.23
2023-04-29T04:15:28.734Z,24.17
2023-04-29T04:17:56.730Z,23.53
2023-04-29T04:20:23.433Z,24.57
2023-04-29T04:22:50.072Z,23.13
2023-04-29T04:25:16.845Z,22.77
2023-04-29T04:27:43.589Z,26.00
2023-04-29T04:30:10.543Z,24.10
2023-04-29T04:32:37.877Z,24.07
2023-04-29T04:35:04.972Z,23.37
2023-04-29T04:37:31.955Z,24.83
2023-04-29T04:39:58.693Z,24.63
2023-04-29T04:42:25.373Z,22.23
2023-04-29T04:44:53.850Z,23.83
2023-04-29T04:47:20.803Z,22.40
2023-04-29T04:49:49.745Z,23.43
2023-04-29T04:52:16.684Z,21.43
2023-04-29T04:54:46.564Z,22.97
2023-04-29T04:57:13.436Z,22.90
2023-04-29T04:59:40.155Z,21.47
2023-04-29T05:02:08.630Z,21.07
2023-04-29T05:04:35.481Z,22.40
2023-04-29T05:07:02.216Z,21.57
2023-04-29T05:09:30.182Z,21.73
2023-04-29T05:11:59.168Z,21.60
2023-04-29T05:14:26.472Z,21.13
2023-04-29T05:16:53.536Z,20.27
2023-04-29T05:19:20.530Z,21.07
2023-04-29T05:21:47.272Z,19.80
2023-04-29T05:24:15.584Z,21.80
2023-04-29T05:26:44.301Z,20.53
2023-04-29T05:29:12.176Z,21.00
2023-04-29T05:31:39.013Z,21.97
2023-04-29T05:34:05.940Z,21.97
2023-04-29T05:36:32.763Z,20.80
2023-04-29T05:38:59.581Z,21.93
2023-04-29T05:41:26.957Z,20.90
2023-04-29T05:43:53.661Z,20.80
2023-04-29T05:46:20.704Z,20.07
2023-04-29T05:48:47.451Z,20.60
2023-04-29T05:51:14.527Z,20.70
2023-04-29T05:53:41.368Z,22.87
2023-04-29T05:56:08.518Z,19.67
2023-04-29T05:58:38.320Z,20.10
2023-04-29T06:01:05.038Z,18.80
2023-04-29T06:03:34.773Z,20.40
2023-04-29T06:06:02.023Z,20.10
2023-04-29T06:08:30.055Z,19.23
2023-04-29T06:10:56.925Z,20.13
2023-04-29T06:13:23.764Z,19.67
2023-04-29T06:15:50.782Z,18.30
2023-04-29T06:18:17.501Z,19.93
2023-04-29T06:20:44.220Z,18.67
2023-04-29T06:23:10.924Z,19.00
2023-04-29T06:25:37.712Z,19.47
2023-04-29T06:28:04.552Z,18.30
2023-04-29T06:30:31.693Z,18.50
2023-04-29T06:32:58.515Z,17.63
2023-04-29T06:35:25.338Z,18.60
2023-04-29T06:37:53.309Z,18.23
2023-04-29T06:40:20.064Z,18.40
2023-04-29T06:42:46.908Z,18.23
2023-04-29T06:45:13.654Z,17.73
2023-04-29T06:47:40.728Z,17.33
2023-04-29T06:50:07.808Z,15.97
2023-04-29T06:52:34.633Z,16.07
2023-04-29T06:55:07.746Z,16.40
2023-04-29T06:57:34.531Z,16.67
2023-04-29T07:00:01.258Z,15.20
2023-04-29T07:02:28.076Z,15.93
2023-04-29T07:04:55.548Z,15.63
2023-04-29T07:07:23.592Z,16.23
2023-04-29T07:09:52.787Z,15.10
2023-04-29T07:12:19.701Z,15.10
2023-04-29T07:14:46.512Z,14.80
2023-04-29T07:17:14.217Z,15.80
2023-04-29T07:19:41.461Z,14.37
2023-04-29T07:22:08.300Z,14.77
2023-04-29T07:24:35.084Z,16.23
2023-04-29T07:27:01.890Z,15.00
2023-04-29T07:29:31.626Z,15.97
2023-04-29T07:31:58.480Z,15.00
2023-04-29T07:34:25.551Z,13.33
2023-04-29T07:36:52.361Z,14.40
2023-04-29T07:39:19.108Z,13.33
2023-04-29T07:41:46.079Z,13.67
2023-04-29T07:44:12.935Z,13.83
2023-04-29T07:46:39.957Z,12.57
2023-04-29T07:49:07.434Z,13.97
2023-04-29T07:51:34.312Z,13.90
2023-04-29T07:54:01.177Z,12.93
2023-04-29T07:56:28.214Z,12.77
2023-04-29T07:58:55.145Z,13.60
2023-04-29T08:01:22.100Z,13.15
2023-04-29T08:03:49.181Z,13.15
2023-04-29T08:06:16.665Z,12.80
2023-04-29T08:08:44.068Z,12.85
2023-04-29T08:11:17.166Z,12.00
2023-04-29T08:13:43.968Z,12.73
2023-04-29T08:16:11.396Z,12.65
2023-04-29T08:18:39.755Z,10.93
2023-04-29T08:21:06.958Z,11.32
2023-04-29T08:23:34.345Z,11.45
2023-04-29T08:26:01.292Z,11.73
2023-04-29T08:28:28.263Z,12.38
2023-04-29T08:30:55.619Z,11.30
2023-04-29T08:33:22.945Z,11.48
2023-04-29T08:35:57.517Z,10.32
2023-04-29T08:38:24.968Z,11.73
2023-04-29T08:40:51.862Z,10.10
2023-04-29T08:43:20.576Z,10.45
2023-04-29T08:45:49.571Z,9.98
2023-04-29T08:48:17.603Z,11.02
2023-04-29T08:50:45.102Z,10.13
2023-04-29T08:53:13.987Z,9.95
2023-04-29T08:55:50.054Z,9.13
2023-04-29T08:58:17.242Z,9.15
2023-04-29T09:00:44.949Z,9.13
2023-04-29T09:03:22.052Z,9.35
2023-04-29T09:05:53.138Z,9.52
2023-04-29T09:08:22.667Z,9.60
2023-04-29T09:10:51.030Z,9.45
2023-04-29T09:13:32.090Z,9.57
2023-04-29T09:15:59.360Z,10.15
2023-04-29T09:18:53.371Z,9.63
2023-04-29T09:21:24.349Z,8.23
2023-04-29T09:23:59.843Z,9.05
2023-04-29T09:26:27.697Z,9.05
2023-04-29T09:29:08.407Z,8.95
2023-04-29T09:31:37.411Z,7.60
2023-04-29T09:34:04.409Z,6.97
2023-04-29T09:36:51.277Z,7.00
2023-04-29T09:39:22.934Z,7.35
2023-04-29T09:41:52.759Z,8.63
2023-04-29T09:44:24.257Z,8.00
2023-04-29T09:46:58.474Z,7.95
2023-04-29T09:49:27.475Z,7.72
2023-04-29T09:51:59.435Z,7.47
2023-04-29T09:54:31.424Z,7.32
2023-04-29T09:56:59.683Z,6.88
2023-04-29T09:59:26.948Z,7.00
2023-04-29T10:01:58.202Z,6.70
2023-04-29T10:04:27.226Z,7.18
2023-04-29T10:06:56.095Z,6.75
2023-04-29T10:09:24.045Z,7.43
2023-04-29T10:11:52.769Z,7.05
2023-04-29T10:14:21.587Z,7.03
2023-04-29T10:16:59.319Z,7.40
2023-04-29T10:19:34.428Z,7.45
2023-04-29T10:22:15.090Z,6.82
2023-04-29T10:24:43.983Z,6.95
2023-04-29T10:27:15.365Z,5.97
2023-04-29T10:29:44.615Z,6.18
2023-04-29T10:32:14.490Z,6.13
2023-04-29T10:34:42.391Z,6.43
2023-04-29T10:37:11.443Z,6.05
2023-04-29T10:39:50.666Z,5.88
2023-04-29T10:42:32.037Z,5.68
2023-04-29T10:45:23.721Z,7.03
2023-04-29T10:48:03.131Z,6.32
2023-04-29T10:50:32.316Z,5.97
2023-04-29T10:53:02.596Z,6.47
2023-04-29T10:55:29.549Z,6.20
2023-04-29T10:57:57.425Z,6.75
2023-04-29T11:00:28.799Z,6.18
2023-04-29T11:03:02.123Z,6.25
2023-04-29T11:05:33.824Z,5.90
2023-04-29T11:08:16.321Z,6.03
2023-04-29T11:10:44.037Z,6.25
2023-04-29T11:13:28.627Z,6.47
2023-04-29T11:16:11.299Z,5.82
2023-04-29T11:19:08.759Z,5.85
2023-04-29T11:21:37.036Z,5.35
2023-04-29T11:24:06.534Z,5.75
2023-04-29T11:26:37.345Z,5.93
2023-04-29T11:29:05.566Z,6.30
2023-04-29T11:31:33.684Z,6.50
2023-04-29T11:34:01.034Z,5.57
2023-04-29T11:36:28.435Z,4.95
2023-04-29T11:38:56.016Z,5.25
2023-04-29T11:41:23.602Z,5.60
2023-04-29T11:43:58.048Z,6.18
2023-04-29T11:46:26.451Z,5.75
2023-04-29T11:48:53.237Z,6.07
2023-04-29T11:51:20.855Z,5.60
2023-04-29T11:53:47.853Z,5.65
2023-04-29T11:56:14.726Z,5.90
2023-04-29T11:58:43.759Z,5.80
2023-04-29T12:01:11.473Z,5.28
2023-04-29T12:03:38.745Z,4.88
2023-04-29T12:06:08.323Z,4.90
2023-04-29T12:08:35.446Z,5.55
2023-04-29T12:11:02.266Z,5.93
2023-04-29T12:13:30.604Z,5.88
2023-04-29T12:15:59.239Z,5.13
2023-04-29T12:18:27.759Z,4.72
2023-04-29T12:20:56.017Z,5.55
2023-04-29T12:23:27.453Z,5.25
2023-04-29T12:25:57.403Z,5.20
2023-04-29T12:28:24.898Z,4.00
2023-04-29T12:30:58.476Z,4.30
2023-04-29T12:33:28.393Z,3.83
2023-04-29T12:35:57.936Z,3.80
2023-04-29T12:38:33.619Z,4.03
2023-04-29T12:41:02.156Z,4.10
2023-04-29T12:43:33.853Z,4.53
2023-04-29T12:46:05.956Z,4.93
2023-04-29T12:48:34.294Z,5.28
2023-04-29T12:51:02.177Z,5.20
2023-04-29T12:53:32.939Z,5.30
2023-04-29T12:56:00.386Z,4.90
2023-04-29T12:58:34.426Z,4.63
2023-04-29T13:01:01.449Z,4.53
2023-04-29T13:03:28.644Z,4.03
2023-04-29T13:05:55.944Z,4.50
2023-04-29T13:08:23.289Z,4.20
2023-04-29T13:10:50.236Z,4.35
2023-04-29T13:13:17.088Z,4.35
2023-04-29T13:15:43.772Z,4.80
2023-04-29T13:18:11.408Z,4.70
2023-04-29T13:20:42.546Z,4.65
2023-04-29T13:23:10.028Z,4.03
2023-04-29T13:25:37.831Z,4.05
2023-04-29T13:28:07.798Z,4.25
2023-04-29T13:30:34.807Z,3.58
2023-04-29T13:33:09.641Z,4.20
2023-04-29T13:35:40.251Z,3.78
2023-04-29T13:38:10.466Z,4.22
2023-04-29T13:40:40.646Z,4.38
2023-04-29T13:43:13.856Z,3.67
2023-04-29T13:45:45.527Z,3.63
2023-04-29T13:48:34.824Z,3.83
2023-04-29T13:51:27.073Z,3.95
2023-04-29T14:01:54.529Z,4.00
2023-04-29T14:04:04.480Z,3.65
2023-04-29T14:06:34.853Z,3.70
2023-04-29T14:09:03.665Z,4.00
2023-04-29T14:11:30.667Z,4.03
2023-04-29T14:13:57.343Z,3.75
2023-04-29T14:16:24.102Z,3.33
2023-04-29T14:18:50.936Z,4.20
2023-04-29T14:21:17.681Z,3.88
2023-04-29T14:23:44.345Z,4.45
2023-04-29T14:26:27.389Z,5.07
2023-04-29T14:28:59.615Z,3.97
2023-04-29T14:31:31.108Z,4.45
2023-04-29T14:33:58.519Z,4.05
2023-04-29T14:39:03.915Z,4.88
2023-04-29T14:41:30.682Z,4.40
2023-04-29T14:43:57.348Z,4.43
2023-04-29T14:46:25.344Z,4.70
2023-04-29T14:48:52.229Z,4.30
2023-04-29T14:51:19.055Z,4.63
2023-04-29T14:53:45.895Z,4.80
2023-04-29T14:56:12.739Z,5.30
2023-04-29T14:58:39.745Z,4.90
2023-04-29T15:01:06.543Z,5.88
2023-04-29T15:03:33.368Z,5.60
2023-04-29T15:06:03.762Z,4.90
2023-04-29T15:08:31.562Z,4.38
2023-04-29T15:10:58.328Z,5.20
2023-04-29T15:13:25.132Z,5.28
2023-04-29T15:15:52.085Z,4.85
2023-04-29T15:18:19.298Z,4.60
2023-04-29T15:20:46.182Z,4.72
2023-04-29T15:23:12.855Z,4.30
2023-04-29T15:25:39.742Z,4.60
2023-04-29T15:28:06.510Z,3.90
2023-04-29T15:30:33.332Z,3.60
2023-04-29T15:33:00.179Z,4.10
2023-04-29T15:35:27.602Z,4.28
2023-04-29T15:37:54.487Z,3.78
2023-04-29T15:40:21.291Z,3.83
2023-04-29T15:42:47.990Z,3.90
2023-04-29T15:45:14.816Z,3.65
2023-04-29T15:47:41.490Z,3.58
2023-04-29T15:50:10.387Z,3.65
2023-04-29T15:52:37.085Z,3.63
2023-04-29T15:55:05.485Z,3.90
2023-04-29T15:57:32.386Z,3.58
2023-04-29T15:59:59.760Z,3.22
2023-04-29T16:02:26.500Z,3.80
2023-04-29T16:04:53.404Z,3.83
2023-04-29T16:07:20.281Z,3.80
2023-04-29T16:09:47.071Z,3.88
2023-04-29T16:12:14.329Z,3.40
2023-04-29T16:14:41.485Z,3.50
2023-04-29T16:17:08.191Z,3.45
2023-04-29T16:19:51.183Z,3.45
2023-04-29T16:22:18.700Z,3.53
2023-04-29T16:24:47.764Z,3.75
2023-04-29T16:27:15.935Z,3.30
2023-04-29T16:29:43.155Z,2.80
2023-04-29T16:32:09.807Z,2.58
2023-04-29T16:34:39.872Z,2.50
2023-04-29T16:37:12.306Z,2.50
2023-04-29T16:39:40.146Z,3.15
2023-04-29T16:42:07.322Z,3.58
2023-04-29T16:44:34.057Z,2.78
2023-04-29T16:47:00.733Z,2.50
2023-04-29T16:49:28.105Z,2.53
2023-04-29T16:54:31.785Z,3.50
2023-04-29T16:57:04.078Z,3.50
2023-04-29T16:59:39.253Z,3.33
2023-04-29T17:02:08.218Z,3.47
2023-04-29T17:04:37.927Z,3.50
2023-04-29T17:07:09.731Z,3.60
2023-04-29T17:09:36.664Z,3.85
2023-04-29T17:12:04.309Z,3.63
2023-04-29T17:14:31.194Z,3.20
2023-04-29T17:16:57.957Z,3.30
2023-04-29T17:19:24.640Z,3.30
2023-04-29T17:21:51.309Z,3.92
2023-04-29T17:24:18.221Z,3.88
2023-04-29T17:26:46.321Z,4.00
2023-04-29T17:29:13.075Z,3.60
2023-04-29T17:31:46.172Z,3.60
2023-04-29T17:34:18.718Z,3.70
2023-04-29T17:36:47.209Z,3.65
2023-04-29T17:39:14.018Z,3.87
2023-04-29T17:41:41.459Z,3.47
2023-04-29T17:44:08.746Z,3.50
2023-04-29T17:46:36.458Z,3.80
2023-04-29T17:49:04.132Z,4.50
2023-04-29T17:51:34.090Z,4.07
2023-04-29T17:54:01.701Z,4.53
2023-04-29T17:56:28.677Z,4.10
2023-04-29T17:58:55.375Z,3.63
2023-04-29T18:01:22.069Z,4.07
2023-04-29T18:03:50.901Z,3.30
2023-04-29T18:06:18.426Z,3.93
2023-04-29T18:08:45.983Z,3.70
2023-04-29T18:11:12.959Z,3.30
2023-04-29T18:13:40.820Z,4.00
2023-04-29T18:16:27.608Z,3.33
2023-04-29T18:19:34.074Z,3.40
2023-04-29T18:22:18.511Z,3.73
2023-04-29T18:24:52.364Z,3.73
2023-04-29T18:27:21.503Z,4.27
2023-04-29T18:29:51.478Z,3.93
2023-04-29T18:32:25.277Z,3.67
2023-04-29T18:34:52.037Z,4.00
2023-04-29T18:37:18.743Z,4.30
2023-04-29T18:39:45.855Z,4.20
2023-04-29T18:42:12.532Z,3.80
2023-04-29T18:44:39.989Z,4.03
2023-04-29T18:47:06.695Z,4.37
2023-04-29T18:49:34.382Z,4.97
2023-04-29T18:52:03.220Z,4.87
2023-04-29T18:54:29.935Z,6.23
2023-04-29T18:56:56.606Z,5.87
2023-04-29T18:59:23.273Z,6.73
2023-04-29T19:01:50.764Z,6.10
2023-04-29T19:04:17.545Z,6.57
2023-04-29T19:06:44.602Z,6.47
2023-04-29T19:09:11.462Z,7.90
2023-04-29T19:11:38.328Z,7.10
2023-04-29T19:14:06.136Z,7.03
2023-04-29T19:16:34.833Z,6.50
2023-04-29T19:19:04.007Z,7.23
2023-04-29T19:21:33.390Z,8.23
2023-04-29T19:24:00.676Z,7.17
2023-04-29T19:26:27.593Z,7.60
2023-04-29T19:28:54.584Z,7.83
2023-04-29T19:31:21.500Z,6.97
2023-04-29T19:33:48.691Z,7.87
2023-04-29T19:36:15.603Z,7.30
2023-04-29T19:38:42.461Z,8.40
2023-04-29T19:41:09.325Z,7.73
2023-04-29T19:43:36.158Z,8.30
2023-04-29T19:46:03.503Z,9.03
2023-04-29T19:48:30.228Z,7.77
2023-04-29T19:50:59.594Z,8.33
2023-04-29T19:53:27.369Z,8.20
2023-04-29T19:55:54.571Z,8.47
2023-04-29T19:58:21.346Z,8.73
2023-04-29T20:00:48.454Z,8.57
2023-04-29T20:03:15.865Z,9.13
2023-04-29T20:05:43.353Z,7.77
2023-04-29T20:08:13.429Z,8.80
2023-04-29T20:10:41.942Z,8.27
2023-04-29T20:13:14.396Z,9.73
2023-04-29T20:15:50.066Z,8.93
2023-04-29T20:18:17.983Z,8.70
2023-04-29T20:20:45.421Z,9.10
2023-04-29T20:23:13.273Z,9.60
2023-04-29T20:25:40.127Z,8.83
2023-04-29T20:28:08.871Z,8.97
2023-04-29T20:30:36.340Z,8.87
2023-04-29T20:33:03.386Z,9.47
2023-04-29T20:35:30.577Z,9.73
2023-04-29T20:37:57.336Z,9.23
2023-04-29T20:40:24.009Z,8.97
2023-04-29T20:42:50.975Z,9.60
2023-04-29T20:45:18.485Z,10.07
2023-04-29T20:47:45.502Z,9.80
2023-04-29T20:50:12.388Z,9.83
2023-04-29T20:52:39.157Z,11.40
2023-04-29T20:55:06.190Z,9.73
2023-04-29T20:57:33.116Z,10.30
2023-04-29T20:59:59.815Z,10.30
2023-04-29T21:02:26.576Z,9.23
2023-04-29T21:04:54.199Z,10.07
2023-04-29T21:07:20.856Z,9.23
2023-04-29T21:09:48.826Z,9.43
2023-04-29T21:12:15.886Z,10.00
2023-04-29T21:14:44.388Z,10.33
2023-04-29T21:17:12.120Z,9.43
2023-04-29T21:19:38.777Z,10.30
2023-04-29T21:22:05.550Z,10.33
2023-04-29T21:24:32.427Z,9.53
2023-04-29T21:26:59.202Z,10.93
2023-04-29T21:29:26.079Z,9.97
2023-04-29T21:31:52.772Z,9.70
2023-04-29T21:34:19.861Z,10.53
2023-04-29T21:36:46.696Z,9.80
2023-04-29T21:39:13.523Z,9.77
2023-04-29T21:41:42.849Z,9.80
2023-04-29T21:44:09.807Z,10.80
2023-04-29T21:46:37.186Z,9.20
2023-04-29T21:49:04.158Z,10.70
2023-04-29T21:51:32.037Z,10.70
2023-04-29T21:53:58.953Z,10.53
2023-04-29T21:56:25.871Z,9.80
2023-04-29T21:58:53.499Z,9.90
2023-04-29T22:01:27.143Z,9.83
2023-04-29T22:03:55.151Z,10.10
2023-04-29T22:06:22.227Z,10.30
2023-04-29T22:08:50.170Z,10.53
2023-04-29T22:11:19.582Z,9.87
2023-04-29T22:13:46.403Z,10.93
2023-04-29T22:16:13.327Z,10.57
2023-04-29T22:18:40.315Z,10.43
2023-04-29T22:21:07.515Z,9.60
2023-04-29T22:23:34.518Z,10.27
2023-04-29T22:26:01.186Z,10.27
2023-04-29T22:28:28.053Z,10.17
2023-04-29T22:30:54.830Z,10.77
2023-04-29T22:33:21.650Z,11.37
2023-04-29T22:35:48.506Z,11.27
2023-04-29T22:38:15.413Z,11.67
2023-04-29T22:40:42.091Z,11.93
2023-04-29T22:43:08.888Z,10.90
2023-04-29T22:45:35.619Z,12.33
2023-04-29T22:48:03.496Z,11.87
2023-04-29T22:50:31.191Z,12.07
2023-04-29T22:52:59.325Z,10.60
2023-04-29T22:55:25.990Z,11.60
2023-04-29T22:57:53.801Z,11.57
2023-04-29T23:00:22.025Z,11.40
2023-04-29T23:02:49.103Z,11.30
2023-04-29T23:05:15.943Z,11.50
2023-04-29T23:07:42.991Z,11.70
2023-04-29T23:10:10.105Z,10.17
2023-04-29T23:12:36.768Z,9.90
2023-04-29T23:15:04.987Z,11.60
2023-04-29T23:17:33.860Z,12.23
2023-04-29T23:20:03.015Z,11.70
2023-04-29T23:22:29.708Z,13.00
2023-04-29T23:24:56.453Z,13.20
2023-04-29T23:27:23.204Z,11.50
2023-04-29T23:29:51.132Z,12.13
2023-04-29T23:32:19.442Z,11.70
2023-04-29T23:34:47.593Z,11.10
2023-04-29T23:37:14.281Z,12.53
2023-04-29T23:39:40.994Z,12.37
2023-04-29T23:42:07.951Z,11.90
2023-04-29T23:44:34.630Z,11.97
2023-04-29T23:47:01.480Z,12.40
2023-04-29T23:49:28.586Z,12.63
2023-04-29T23:51:55.979Z,12.63
2023-04-29T23:54:22.807Z,12.33
2023-04-29T23:56:49.509Z,12.90
2023-04-29T23:59:16.236Z,13.47
